createdAt,value
2022-11-07T00:01:49.980Z,26.75
2022-11-07T00:04:17.838Z,25.73
2022-11-07T00:06:45.129Z,29.52
2022-11-07T00:09:12.791Z,31.50
2022-11-07T00:11:40.209Z,27.27
2022-11-07T00:14:07.636Z,28.55
2022-11-07T00:16:34.926Z,19.33
2022-11-07T00:19:02.343Z,25.88
2022-11-07T00:21:29.769Z,25.23
2022-11-07T00:23:57.056Z,32.22
2022-11-07T00:26:24.500Z,34.05
2022-11-07T00:28:51.900Z,37.35
2022-11-07T00:31:20.005Z,21.38
2022-11-07T00:33:47.600Z,29.38
2022-11-07T00:36:26.276Z,29.58
2022-11-07T00:38:56.275Z,25.90
2022-11-07T00:41:24.212Z,39.95
2022-11-07T00:43:51.865Z,24.95
2022-11-07T00:46:19.857Z,31.70
2022-11-07T00:48:47.953Z,25.88
2022-11-07T00:51:23.727Z,41.47
2022-11-07T00:53:52.174Z,32.13
2022-11-07T00:56:23.884Z,26.45
2022-11-07T00:58:58.783Z,29.58
2022-11-07T01:01:30.543Z,26.13
2022-11-07T01:04:17.424Z,30.52
2022-11-07T01:06:49.262Z,31.70
2022-11-07T01:09:19.763Z,34.70
2022-11-07T01:11:48.068Z,21.48
2022-11-07T01:14:18.458Z,29.63
2022-11-07T01:16:45.882Z,24.15
2022-11-07T01:19:13.439Z,34.33
2022-11-07T01:21:41.868Z,26.23
2022-11-07T01:24:11.023Z,25.73
2022-11-07T01:26:40.295Z,21.33
2022-11-07T01:29:08.572Z,26.70
2022-11-07T01:31:37.789Z,21.08
2022-11-07T01:34:07.979Z,23.02
2022-11-07T01:36:35.540Z,24.30
2022-11-07T01:39:04.140Z,24.42
2022-11-07T01:41:34.565Z,26.23
2022-11-07T01:44:07.843Z,29.10
2022-11-07T01:46:37.930Z,22.67
2022-11-07T01:49:20.838Z,29.10
2022-11-07T01:52:10.108Z,24.45
2022-11-07T01:55:00.612Z,22.30
2022-11-07T01:57:34.636Z,22.27
2022-11-07T02:00:07.167Z,20.65
2022-11-07T02:02:36.585Z,23.35
2022-11-07T02:05:08.938Z,18.63
2022-11-07T02:07:38.375Z,18.17
2022-11-07T02:10:06.622Z,25.63
2022-11-07T02:12:34.569Z,30.05
2022-11-07T02:15:02.189Z,22.08
2022-11-07T02:17:29.795Z,36.65
2022-11-07T02:19:57.446Z,28.73
2022-11-07T02:22:27.841Z,29.88
2022-11-07T02:24:58.926Z,22.63
2022-11-07T02:27:31.592Z,30.88
2022-11-07T02:30:02.974Z,22.63
2022-11-07T02:32:30.682Z,21.77
2022-11-07T02:35:00.489Z,21.77
2022-11-07T02:37:32.809Z,23.10
2022-11-07T02:40:03.361Z,31.52
2022-11-07T02:42:43.661Z,30.75
2022-11-07T02:45:21.877Z,23.23
2022-11-07T02:47:49.755Z,23.60
2022-11-07T02:50:17.044Z,27.58
2022-11-07T02:52:44.518Z,32.08
2022-11-07T02:55:13.785Z,22.42
2022-11-07T02:57:41.701Z,25.00
2022-11-07T03:00:11.877Z,19.38
2022-11-07T03:02:39.571Z,27.45
2022-11-07T03:05:07.752Z,34.47
2022-11-07T03:07:35.039Z,16.85
2022-11-07T03:10:02.482Z,31.98
2022-11-07T03:12:29.784Z,28.92
2022-11-07T03:14:57.122Z,23.27
2022-11-07T03:17:24.435Z,25.25
2022-11-07T03:19:51.924Z,27.25
2022-11-07T03:22:19.360Z,30.23
2022-11-07T03:24:46.662Z,24.98
2022-11-07T03:27:15.645Z,26.90
2022-11-07T03:29:42.989Z,22.83
2022-11-07T03:32:10.653Z,18.05
2022-11-07T03:34:38.539Z,34.67
2022-11-07T03:37:09.602Z,21.05
2022-11-07T03:39:38.593Z,28.15
2022-11-07T03:42:06.013Z,30.58
2022-11-07T03:44:33.456Z,27.02
2022-11-07T03:47:00.760Z,30.30
2022-11-07T03:49:28.005Z,34.55
2022-11-07T03:51:56.304Z,40.05
2022-11-07T03:54:23.569Z,24.35
2022-11-07T03:56:50.984Z,24.33
2022-11-07T03:59:19.435Z,33.42
2022-11-07T04:01:46.954Z,23.80
2022-11-07T04:04:14.669Z,26.50
2022-11-07T04:06:41.974Z,24.42
2022-11-07T04:09:09.594Z,29.10
2022-11-07T04:11:55.391Z,26.92
2022-11-07T04:14:41.409Z,26.30
2022-11-07T04:17:21.911Z,51.50
2022-11-07T04:19:58.100Z,32.17
2022-11-07T04:22:26.387Z,33.25
2022-11-07T04:24:53.772Z,29.20
2022-11-07T04:27:39.881Z,27.08
2022-11-07T04:30:28.460Z,28.20
2022-11-07T04:32:58.326Z,27.90
2022-11-07T04:35:29.399Z,22.25
2022-11-07T04:37:56.948Z,26.67
2022-11-07T04:40:24.207Z,39.60
2022-11-07T04:42:52.041Z,42.33
2022-11-07T04:45:19.335Z,22.98
2022-11-07T04:47:47.430Z,40.42
2022-11-07T04:50:17.954Z,44.40
2022-11-07T04:52:46.717Z,39.15
2022-11-07T04:55:26.237Z,34.88
2022-11-07T04:57:53.757Z,30.90
2022-11-07T05:00:22.655Z,31.33
2022-11-07T05:02:50.889Z,30.40
2022-11-07T05:05:20.126Z,34.65
2022-11-07T05:07:48.604Z,49.00
2022-11-07T05:10:22.658Z,32.13
2022-11-07T05:12:50.072Z,34.25
2022-11-07T05:15:18.549Z,45.53
2022-11-07T05:17:46.545Z,32.63
2022-11-07T05:20:31.387Z,36.55
2022-11-07T05:23:19.053Z,35.03
2022-11-07T05:25:54.446Z,32.33
2022-11-07T05:28:35.289Z,30.20
2022-11-07T05:31:08.093Z,28.90
2022-11-07T05:33:35.924Z,27.73
2022-11-07T05:36:14.317Z,28.75
2022-11-07T05:38:45.245Z,22.73
2022-11-07T05:41:14.010Z,29.20
2022-11-07T05:43:41.439Z,29.60
2022-11-07T05:46:10.339Z,35.70
2022-11-07T05:48:38.378Z,17.65
2022-11-07T05:51:07.288Z,21.30
2022-11-07T05:53:35.027Z,32.53
2022-11-07T05:56:03.901Z,35.13
2022-11-07T05:58:31.409Z,34.20
2022-11-07T06:01:04.174Z,21.90
2022-11-07T06:03:33.573Z,33.90
2022-11-07T06:06:01.130Z,49.25
2022-11-07T06:08:28.425Z,24.05
2022-11-07T06:10:55.691Z,38.85
2022-11-07T06:13:23.272Z,29.90
2022-11-07T06:15:50.506Z,29.50
2022-11-07T06:18:20.389Z,30.90
2022-11-07T06:20:47.880Z,30.00
2022-11-07T06:23:15.751Z,29.58
2022-11-07T06:25:43.620Z,27.65
2022-11-07T06:28:14.981Z,27.08
2022-11-07T06:30:42.624Z,28.08
2022-11-07T06:33:16.499Z,34.53
2022-11-07T06:35:45.049Z,35.38
2022-11-07T06:38:14.225Z,33.20
2022-11-07T06:40:42.844Z,36.63
2022-11-07T06:43:18.891Z,24.83
2022-11-07T06:48:16.614Z,23.40
2022-11-07T06:50:44.061Z,34.67
2022-11-07T06:53:13.446Z,31.83
2022-11-07T06:55:45.993Z,23.27
2022-11-07T06:58:13.756Z,35.67
2022-11-07T07:00:42.235Z,35.30
2022-11-07T07:03:11.117Z,34.28
2022-11-07T07:05:38.844Z,28.42
2022-11-07T07:08:07.747Z,25.77
2022-11-07T07:10:39.434Z,38.70
2022-11-07T07:13:06.776Z,32.03
2022-11-07T07:15:49.420Z,22.65
2022-11-07T07:18:19.527Z,36.90
2022-11-07T07:20:48.572Z,26.70
2022-11-07T07:23:17.607Z,24.98
2022-11-07T07:25:45.643Z,39.75
2022-11-07T07:28:13.266Z,27.65
2022-11-07T07:30:40.833Z,31.45
2022-11-07T07:33:08.137Z,27.88
2022-11-07T07:35:35.621Z,43.92
2022-11-07T07:38:03.056Z,34.95
2022-11-07T07:40:30.462Z,43.10
2022-11-07T07:42:58.224Z,31.67
2022-11-07T07:45:26.045Z,32.70
2022-11-07T07:47:53.327Z,40.22
2022-11-07T07:50:21.637Z,30.08
2022-11-07T07:52:48.962Z,41.88
2022-11-07T07:55:16.382Z,34.55
2022-11-07T07:57:45.477Z,34.10
2022-11-07T08:00:13.502Z,32.78
2022-11-07T08:02:43.956Z,36.75
2022-11-07T08:05:13.958Z,37.25
2022-11-07T08:07:49.322Z,24.95
2022-11-07T08:10:40.900Z,32.80
2022-11-07T08:13:05.350Z,28.13
2022-11-07T08:15:33.229Z,30.55
2022-11-07T08:18:04.722Z,31.90
2022-11-07T08:20:32.600Z,34.72
2022-11-07T08:23:14.597Z,26.30
2022-11-07T08:25:52.116Z,30.67
2022-11-07T08:28:21.325Z,29.50
2022-11-07T08:31:10.144Z,26.75
2022-11-07T08:33:38.079Z,25.23
2022-11-07T08:36:07.180Z,29.65
2022-11-07T08:38:36.232Z,28.98
2022-11-07T08:41:06.468Z,23.45
2022-11-07T08:43:33.818Z,25.45
2022-11-07T08:46:01.223Z,20.70
2022-11-07T08:48:28.513Z,30.25
2022-11-07T08:50:57.684Z,47.55
2022-11-07T08:53:27.234Z,35.92
2022-11-07T08:56:01.898Z,37.10
2022-11-07T08:58:30.354Z,25.13
2022-11-07T09:00:58.317Z,25.15
2022-11-07T09:06:15.071Z,28.30
2022-11-07T09:08:42.430Z,31.10
2022-11-07T09:11:10.016Z,30.70
2022-11-07T09:13:37.675Z,23.75
2022-11-07T09:16:07.830Z,34.95
2022-11-07T09:18:35.152Z,19.20
2022-11-07T09:21:02.870Z,19.83
2022-11-07T09:23:30.979Z,21.08
2022-11-07T09:26:01.540Z,27.08
2022-11-07T09:28:29.953Z,23.45
2022-11-07T09:30:59.002Z,20.85
2022-11-07T09:33:26.948Z,18.23
2022-11-07T09:35:58.792Z,12.85
2022-11-07T09:38:26.404Z,19.92
2022-11-07T09:41:05.845Z,27.50
2022-11-07T09:44:11.418Z,20.85
2022-11-07T09:46:50.852Z,15.48
2022-11-07T09:49:40.996Z,21.90
2022-11-07T09:52:17.949Z,24.33
2022-11-07T09:54:51.669Z,15.00
2022-11-07T09:57:20.122Z,19.50
2022-11-07T09:59:56.045Z,19.73
2022-11-07T10:02:32.278Z,22.20
2022-11-07T10:05:03.263Z,20.38
2022-11-07T10:08:04.323Z,19.98
2022-11-07T10:10:52.559Z,19.55
2022-11-07T10:13:22.904Z,22.67
2022-11-07T10:16:09.033Z,20.05
2022-11-07T10:18:57.822Z,21.52
2022-11-07T10:21:49.609Z,20.25
2022-11-07T10:24:38.712Z,16.65
2022-11-07T10:27:10.649Z,20.15
2022-11-07T10:29:44.798Z,21.33
2022-11-07T10:32:22.287Z,22.40
2022-11-07T10:34:57.048Z,19.75
2022-11-07T10:37:24.946Z,28.50
2022-11-07T10:39:52.560Z,19.48
2022-11-07T10:42:31.334Z,26.13
2022-11-07T10:44:59.825Z,21.77
2022-11-07T10:47:30.284Z,14.45
2022-11-07T10:50:00.359Z,31.50
2022-11-07T10:52:29.308Z,20.38
2022-11-07T10:55:08.567Z,21.65
2022-11-07T10:57:36.443Z,32.53
2022-11-07T11:00:08.017Z,26.23
2022-11-07T11:02:48.154Z,29.67
2022-11-07T11:05:42.186Z,24.73
2022-11-07T11:08:22.111Z,40.67
2022-11-07T11:10:51.202Z,30.80
2022-11-07T11:13:36.040Z,24.83
2022-11-07T11:16:31.304Z,27.23
2022-11-07T11:19:01.297Z,29.75
2022-11-07T11:21:43.614Z,32.28
2022-11-07T11:24:30.664Z,28.33
2022-11-07T11:27:03.681Z,20.65
2022-11-07T11:29:49.822Z,26.55
2022-11-07T11:32:35.448Z,27.43
2022-11-07T11:35:23.102Z,22.38
2022-11-07T11:38:04.832Z,29.80
2022-11-07T11:40:37.936Z,15.23
2022-11-07T11:43:30.080Z,13.88
2022-11-07T11:46:19.446Z,22.88
2022-11-07T11:49:05.671Z,22.10
2022-11-07T11:51:54.362Z,23.67
2022-11-07T11:54:22.252Z,24.60
2022-11-07T11:57:27.683Z,30.13
2022-11-07T12:00:23.265Z,35.83
2022-11-07T12:03:30.818Z,28.30
2022-11-07T12:06:11.751Z,30.67
2022-11-07T12:09:00.265Z,35.60
2022-11-07T12:11:32.876Z,24.85
2022-11-07T12:14:29.027Z,27.80
2022-11-07T12:17:05.043Z,18.00
2022-11-07T12:20:08.251Z,23.98
2022-11-07T12:23:12.370Z,18.20
2022-11-07T12:26:14.950Z,22.83
2022-11-07T12:29:14.012Z,21.17
2022-11-07T12:32:11.688Z,17.70
2022-11-07T12:34:53.828Z,15.23
2022-11-07T12:37:48.432Z,23.67
2022-11-07T12:40:36.784Z,21.23
2022-11-07T12:43:03.979Z,22.15
2022-11-07T12:45:58.981Z,25.58
2022-11-07T12:48:32.259Z,26.17
2022-11-07T12:51:27.995Z,25.30
2022-11-07T12:54:40.145Z,14.65
2022-11-07T12:57:18.903Z,38.17
2022-11-07T13:00:02.630Z,36.90
2022-11-07T13:02:45.330Z,30.10
2022-11-07T13:05:37.892Z,26.15
2022-11-07T13:08:16.133Z,46.13
2022-11-07T13:10:49.354Z,25.33
2022-11-07T13:13:43.617Z,35.72
2022-11-07T13:16:28.621Z,33.00
2022-11-07T13:19:07.922Z,28.80
2022-11-07T13:21:43.293Z,21.85
2022-11-07T13:24:22.282Z,23.42
2022-11-07T13:26:49.567Z,27.10
2022-11-07T13:29:38.091Z,29.73
2022-11-07T13:32:13.603Z,33.83
2022-11-07T13:34:59.362Z,21.10
2022-11-07T13:37:31.164Z,33.17
2022-11-07T13:40:15.073Z,32.75
2022-11-07T13:42:43.730Z,35.33
2022-11-07T13:45:41.015Z,25.90
2022-11-07T13:48:19.789Z,28.98
2022-11-07T13:51:00.239Z,29.58
2022-11-07T13:53:34.277Z,32.28
2022-11-07T13:56:14.562Z,38.97
2022-11-07T13:58:43.902Z,36.78
2022-11-07T14:01:13.338Z,114.80
2022-11-07T14:03:40.714Z,157.02
2022-11-07T14:06:12.289Z,271.77
2022-11-07T14:08:41.639Z,156.40
2022-11-07T14:11:21.052Z,153.18
2022-11-07T14:13:52.202Z,176.00
2022-11-07T14:16:25.690Z,136.25
2022-11-07T14:19:12.934Z,165.05
2022-11-07T14:21:43.713Z,102.47
2022-11-07T14:24:33.931Z,47.45
2022-11-07T14:27:08.841Z,34.58
2022-11-07T14:29:37.572Z,36.33
2022-11-07T14:32:07.968Z,25.25
2022-11-07T14:34:36.471Z,26.13
2022-11-07T14:37:07.782Z,38.47
2022-11-07T14:39:35.061Z,30.85
2022-11-07T14:42:03.487Z,23.80
2022-11-07T14:44:58.521Z,38.75
2022-11-07T14:47:29.195Z,37.30
2022-11-07T14:49:57.138Z,37.45
2022-11-07T14:52:29.384Z,37.05
2022-11-07T14:55:04.361Z,39.30
2022-11-07T14:57:35.716Z,38.00
2022-11-07T15:00:17.920Z,45.42
2022-11-07T15:02:48.167Z,36.50
2022-11-07T15:05:30.737Z,39.60
2022-11-07T15:07:59.493Z,38.03
2022-11-07T15:10:37.007Z,40.25
2022-11-07T15:13:18.535Z,33.53
2022-11-07T15:15:47.510Z,34.75
2022-11-07T15:18:26.804Z,48.28
2022-11-07T15:20:59.758Z,34.15
2022-11-07T15:23:28.644Z,45.30
2022-11-07T15:26:00.861Z,36.17
2022-11-07T15:28:43.515Z,35.03
2022-11-07T15:31:30.543Z,34.15
2022-11-07T15:34:00.454Z,46.90
2022-11-07T15:36:27.812Z,38.03
2022-11-07T15:38:56.320Z,41.15
2022-11-07T15:41:23.710Z,32.22
2022-11-07T15:43:51.020Z,42.40
2022-11-07T15:46:27.544Z,38.30
2022-11-07T15:51:22.738Z,28.88
2022-11-07T15:53:50.188Z,26.90
2022-11-07T15:56:20.263Z,37.55
2022-11-07T15:58:48.102Z,31.50
2022-11-07T16:01:15.497Z,48.17
2022-11-07T16:03:43.074Z,36.80
2022-11-07T16:06:33.374Z,23.85
2022-11-07T16:09:00.754Z,40.95
2022-11-07T16:11:28.043Z,50.10
2022-11-07T16:14:14.741Z,33.75
2022-11-07T16:16:44.435Z,27.13
2022-11-07T16:19:17.533Z,26.27
2022-11-07T16:21:44.830Z,29.73
2022-11-07T16:24:12.267Z,25.48
2022-11-07T16:26:40.257Z,24.83
2022-11-07T16:29:11.263Z,23.88
2022-11-07T16:31:38.586Z,21.33
2022-11-07T16:34:06.169Z,21.02
2022-11-07T16:36:35.545Z,18.15
2022-11-07T16:39:05.642Z,21.77
2022-11-07T16:41:33.376Z,18.95
2022-11-07T16:44:01.142Z,21.08
2022-11-07T16:46:34.188Z,17.77
2022-11-07T16:49:12.958Z,16.70
2022-11-07T16:51:43.980Z,23.02
2022-11-07T16:54:11.994Z,22.38
2022-11-07T16:56:40.724Z,21.35
2022-11-07T16:59:08.374Z,18.92
2022-11-07T17:01:36.536Z,20.60
2022-11-07T17:04:03.998Z,24.92
2022-11-07T17:06:34.012Z,18.35
2022-11-07T17:09:12.153Z,17.55
2022-11-07T17:11:40.788Z,19.90
2022-11-07T17:14:08.188Z,15.18
2022-11-07T17:16:37.012Z,19.67
2022-11-07T17:19:06.008Z,20.73
2022-11-07T17:21:49.437Z,15.52
2022-11-07T17:24:16.881Z,17.52
2022-11-07T17:26:44.174Z,18.15
2022-11-07T17:29:13.705Z,20.65
2022-11-07T17:31:42.090Z,28.45
2022-11-07T17:34:09.650Z,17.55
2022-11-07T17:36:46.223Z,17.50
2022-11-07T17:39:16.694Z,21.13
2022-11-07T17:41:45.053Z,22.85
2022-11-07T17:44:12.809Z,23.13
2022-11-07T17:46:45.520Z,33.17
2022-11-07T17:49:18.654Z,24.08
2022-11-07T17:51:46.107Z,21.63
2022-11-07T17:54:14.875Z,29.45
2022-11-07T17:56:42.952Z,32.05
2022-11-07T17:59:16.267Z,21.77
2022-11-07T18:01:44.293Z,22.33
2022-11-07T18:04:13.851Z,18.95
2022-11-07T18:06:43.235Z,19.88
2022-11-07T18:09:16.490Z,29.23
2022-11-07T18:11:44.813Z,24.48
2022-11-07T18:14:13.563Z,25.15
2022-11-07T18:16:40.892Z,24.15
2022-11-07T18:19:09.386Z,30.30
2022-11-07T18:21:36.680Z,26.00
2022-11-07T18:24:04.090Z,25.95
2022-11-07T18:26:31.997Z,31.00
2022-11-07T18:29:05.181Z,25.00
2022-11-07T18:31:32.828Z,31.25
2022-11-07T18:34:02.076Z,22.40
2022-11-07T18:36:31.451Z,28.27
2022-11-07T18:39:04.196Z,23.08
2022-11-07T18:41:31.578Z,19.40
2022-11-07T18:44:04.221Z,36.17
2022-11-07T18:46:32.818Z,31.60
2022-11-07T18:49:00.512Z,29.80
2022-11-07T18:51:27.837Z,39.33
2022-11-07T18:53:55.636Z,31.58
2022-11-07T18:56:22.949Z,20.95
2022-11-07T18:58:50.505Z,36.97
2022-11-07T19:01:20.660Z,27.33
2022-11-07T19:03:48.752Z,32.60
2022-11-07T19:06:20.048Z,34.05
2022-11-07T19:08:48.656Z,32.30
2022-11-07T19:11:19.635Z,19.52
2022-11-07T19:13:47.724Z,29.50
2022-11-07T19:16:17.326Z,36.13
2022-11-07T19:18:49.495Z,26.58
2022-11-07T19:21:21.866Z,30.20
2022-11-07T19:23:50.514Z,39.75
2022-11-07T19:26:19.334Z,29.38
2022-11-07T19:28:47.355Z,34.83
2022-11-07T19:31:15.107Z,24.85
2022-11-07T19:33:43.586Z,19.42
2022-11-07T19:36:19.870Z,24.98
2022-11-07T19:38:48.086Z,30.00
2022-11-07T19:41:17.696Z,30.30
2022-11-07T19:43:48.499Z,28.15
2022-11-07T19:46:20.055Z,36.83
2022-11-07T19:48:49.013Z,26.52
2022-11-07T19:51:22.001Z,33.38
2022-11-07T19:53:58.993Z,25.35
2022-11-07T19:56:29.282Z,28.70
2022-11-07T19:58:57.392Z,29.95
2022-11-07T20:01:27.886Z,26.80
2022-11-07T20:03:56.070Z,26.45
2022-11-07T20:06:38.166Z,25.52
2022-11-07T20:09:07.813Z,39.58
2022-11-07T20:11:35.206Z,26.95
2022-11-07T20:14:03.903Z,33.80
2022-11-07T20:16:32.990Z,27.27
2022-11-07T20:19:01.062Z,26.75
2022-11-07T20:21:29.157Z,39.60
2022-11-07T20:23:59.555Z,32.45
2022-11-07T20:26:29.464Z,37.80
2022-11-07T20:28:56.902Z,40.80
2022-11-07T20:31:26.969Z,26.48
2022-11-07T20:33:56.993Z,33.95
2022-11-07T20:36:24.563Z,29.00
2022-11-07T20:38:54.892Z,22.65
2022-11-07T20:41:23.716Z,21.15
2022-11-07T20:43:55.921Z,30.02
2022-11-07T20:46:23.767Z,19.60
2022-11-07T20:48:51.231Z,26.67
2022-11-07T20:51:20.643Z,27.23
2022-11-07T20:53:50.391Z,20.52
2022-11-07T20:56:20.491Z,24.50
2022-11-07T20:58:48.826Z,34.10
2022-11-07T21:01:19.406Z,32.20
2022-11-07T21:03:48.475Z,32.28
2022-11-07T21:06:16.393Z,22.77
2022-11-07T21:08:46.502Z,22.27
2022-11-07T21:11:14.957Z,27.05
2022-11-07T21:13:51.134Z,19.00
2022-11-07T21:16:21.848Z,27.00
2022-11-07T21:18:50.175Z,27.00
2022-11-07T21:21:21.690Z,30.58
2022-11-07T21:23:50.637Z,26.25
2022-11-07T21:26:21.961Z,29.13
2022-11-07T21:28:49.339Z,19.55
2022-11-07T21:31:23.746Z,15.60
2022-11-07T21:33:51.848Z,21.70
2022-11-07T21:36:23.077Z,26.88
2022-11-07T21:38:51.010Z,28.50
2022-11-07T21:41:18.659Z,25.05
2022-11-07T21:43:46.816Z,17.45
2022-11-07T21:46:21.483Z,29.98
2022-11-07T21:48:50.561Z,24.58
2022-11-07T21:51:21.088Z,27.48
2022-11-07T21:53:49.129Z,25.77
2022-11-07T21:56:24.985Z,23.02
2022-11-07T21:59:08.474Z,28.67
2022-11-07T22:01:37.378Z,28.83
2022-11-07T22:04:09.405Z,38.20
2022-11-07T22:06:39.707Z,24.60
2022-11-07T22:09:08.807Z,26.80
2022-11-07T22:11:37.319Z,25.88
2022-11-07T22:14:05.176Z,33.88
2022-11-07T22:16:33.174Z,22.48
2022-11-07T22:19:00.900Z,12.70
2022-11-07T22:21:28.238Z,21.13
2022-11-07T22:23:58.204Z,19.08
2022-11-07T22:26:27.324Z,22.63
2022-11-07T22:28:55.210Z,17.40
2022-11-07T22:31:25.370Z,16.98
2022-11-07T22:33:54.364Z,30.02
2022-11-07T22:36:22.627Z,28.60
2022-11-07T22:38:50.758Z,24.58
2022-11-07T22:41:23.526Z,21.90
2022-11-07T22:43:51.621Z,21.73
2022-11-07T22:46:23.799Z,24.30
2022-11-07T22:48:52.586Z,24.45
2022-11-07T22:51:28.528Z,16.35
2022-11-07T22:54:06.833Z,18.13
2022-11-07T22:56:36.166Z,19.17
2022-11-07T22:59:05.659Z,33.65
2022-11-07T23:01:35.564Z,29.27
2022-11-07T23:04:03.724Z,33.55
2022-11-07T23:06:31.033Z,25.27
2022-11-07T23:08:59.243Z,20.13
2022-11-07T23:11:45.776Z,20.35
2022-11-07T23:14:15.778Z,14.82
2022-11-07T23:16:45.924Z,20.17
2022-11-07T23:19:15.618Z,17.08
2022-11-07T23:21:43.474Z,18.48
2022-11-07T23:24:11.089Z,19.77
2022-11-07T23:26:38.910Z,19.08
2022-11-07T23:29:18.962Z,18.50
2022-11-07T23:31:48.260Z,27.48
2022-11-07T23:34:15.917Z,24.83
2022-11-07T23:36:44.803Z,22.27
2022-11-07T23:39:18.206Z,14.45
2022-11-07T23:41:46.453Z,28.65
2022-11-07T23:44:14.708Z,14.07
2022-11-07T23:47:01.641Z,21.77
2022-11-07T23:52:14.967Z,23.20
2022-11-07T23:55:01.231Z,23.75
2022-11-07T23:57:28.497Z,22.42
